createdAt,value
2023-03-02T00:01:37.455Z,1.04
2023-03-02T00:04:10.585Z,0.95
2023-03-02T00:06:39.481Z,0.78
2023-03-02T00:09:07.072Z,1.19
2023-03-02T00:11:38.381Z,1.00
2023-03-02T00:14:06.447Z,1.36
2023-03-02T00:16:34.508Z,1.20
2023-03-02T00:19:02.374Z,1.34
2023-03-02T00:21:31.796Z,1.32
2023-03-02T00:23:59.642Z,1.32
2023-03-02T00:26:27.480Z,0.70
2023-03-02T00:28:55.242Z,1.43
2023-03-02T00:31:23.119Z,1.49
2023-03-02T00:33:51.215Z,1.46
2023-03-02T00:36:20.636Z,1.59
2023-03-02T00:38:49.742Z,1.56
2023-03-02T00:41:17.836Z,1.47
2023-03-02T00:43:45.568Z,1.64
2023-03-02T00:46:15.182Z,1.28
2023-03-02T00:48:43.480Z,1.67
2023-03-02T00:51:11.558Z,1.59
2023-03-02T00:53:39.957Z,1.66
2023-03-02T00:56:10.919Z,1.56
2023-03-02T00:58:39.014Z,1.59
2023-03-02T01:01:08.627Z,1.61
2023-03-02T01:03:36.482Z,1.59
2023-03-02T01:06:05.206Z,1.50
2023-03-02T01:08:33.058Z,1.44
2023-03-02T01:11:01.455Z,1.37
2023-03-02T01:13:30.605Z,0.26
2023-03-02T01:16:02.490Z,1.50
2023-03-02T01:18:30.774Z,1.53
2023-03-02T01:21:03.619Z,1.41
2023-03-02T01:23:31.336Z,1.31
2023-03-02T01:25:59.129Z,1.30
2023-03-02T01:28:26.956Z,1.29
2023-03-02T01:30:55.995Z,1.23
2023-03-02T01:33:23.685Z,1.22
2023-03-02T01:35:51.526Z,1.21
2023-03-02T01:38:19.253Z,1.14
2023-03-02T01:40:47.085Z,1.12
2023-03-02T01:43:17.141Z,0.07
2023-03-02T01:45:53.313Z,1.02
2023-03-02T01:48:28.609Z,0.94
2023-03-02T01:50:57.124Z,0.91
2023-03-02T01:53:28.498Z,0.97
2023-03-02T01:55:57.485Z,0.98
2023-03-02T01:58:25.211Z,0.94
2023-03-02T02:00:55.273Z,0.91
2023-03-02T02:03:27.295Z,0.80
2023-03-02T02:06:04.886Z,0.84
2023-03-02T02:08:33.698Z,0.84
2023-03-02T02:11:02.476Z,0.79
2023-03-02T02:13:30.250Z,0.78
2023-03-02T02:15:58.088Z,0.82
2023-03-02T02:18:27.640Z,0.81
2023-03-02T02:20:56.502Z,0.63
2023-03-02T02:23:28.753Z,0.73
2023-03-02T02:26:11.290Z,0.74
2023-03-02T02:28:43.531Z,0.71
2023-03-02T02:31:16.252Z,0.73
2023-03-02T02:33:50.395Z,0.67
2023-03-02T02:36:22.169Z,0.69
2023-03-02T02:38:53.347Z,0.31
2023-03-02T02:41:25.854Z,0.58
2023-03-02T02:43:53.728Z,0.62
2023-03-02T02:46:21.805Z,0.44
2023-03-02T02:48:49.628Z,0.52
2023-03-02T02:51:22.235Z,0.26
2023-03-02T02:53:58.501Z,0.57
2023-03-02T02:56:29.849Z,-0.38
2023-03-02T02:59:02.254Z,0.29
2023-03-02T03:01:30.045Z,0.45
2023-03-02T03:03:59.617Z,0.49
2023-03-02T03:06:30.529Z,0.55
2023-03-02T03:09:01.243Z,0.50
2023-03-02T03:11:32.824Z,0.48
2023-03-02T03:14:05.675Z,0.50
2023-03-02T03:16:35.000Z,0.54
2023-03-02T03:19:09.071Z,0.48
2023-03-02T03:21:37.248Z,0.43
2023-03-02T03:24:05.475Z,0.50
2023-03-02T03:26:34.762Z,0.47
2023-03-02T03:29:03.094Z,0.46
2023-03-02T03:31:31.195Z,0.50
2023-03-02T03:34:00.497Z,0.45
2023-03-02T03:36:29.344Z,0.42
2023-03-02T03:38:57.333Z,0.48
2023-03-02T03:41:26.070Z,0.14
2023-03-02T03:43:55.209Z,0.33
2023-03-02T03:46:23.066Z,0.45
2023-03-02T03:48:51.040Z,0.38
2023-03-02T03:51:19.247Z,0.40
2023-03-02T03:53:47.009Z,-0.08
2023-03-02T03:56:14.694Z,0.44
2023-03-02T03:58:42.428Z,0.43
2023-03-02T04:01:11.552Z,0.48
2023-03-02T04:03:39.222Z,0.46
2023-03-02T04:06:07.200Z,0.42
2023-03-02T04:08:34.946Z,0.25
2023-03-02T04:11:02.701Z,0.35
2023-03-02T04:13:30.420Z,0.35
2023-03-02T04:15:58.240Z,0.32
2023-03-02T04:18:27.351Z,0.27
2023-03-02T04:20:55.059Z,0.12
2023-03-02T04:23:22.853Z,0.16
2023-03-02T04:25:50.512Z,0.07
2023-03-02T04:28:18.172Z,0.02
2023-03-02T04:30:46.028Z,-0.33
2023-03-02T04:33:13.829Z,-0.39
2023-03-02T04:35:42.876Z,-0.03
2023-03-02T04:38:10.578Z,0.03
2023-03-02T04:40:38.319Z,0.05
2023-03-02T04:43:05.994Z,0.07
2023-03-02T04:45:33.827Z,-0.02
2023-03-02T04:48:01.539Z,-0.03
2023-03-02T04:50:29.150Z,-0.10
2023-03-02T04:52:58.228Z,-0.16
2023-03-02T04:55:28.427Z,-0.11
2023-03-02T04:57:56.327Z,-0.14
2023-03-02T05:00:25.118Z,-0.12
2023-03-02T05:02:53.087Z,-0.10
2023-03-02T05:05:24.152Z,-0.13
2023-03-02T05:07:52.528Z,-0.12
2023-03-02T05:10:22.946Z,-0.53
2023-03-02T05:13:02.523Z,-0.04
2023-03-02T05:15:33.118Z,-0.05
2023-03-02T05:18:01.509Z,0.03
2023-03-02T05:20:31.607Z,0.10
2023-03-02T05:23:26.270Z,-1.22
2023-03-02T05:26:36.097Z,0.11
2023-03-02T05:29:20.242Z,-0.21
2023-03-02T05:32:54.229Z,-0.27
2023-03-02T05:35:48.486Z,-0.70
2023-03-02T05:39:11.842Z,-0.82
2023-03-02T05:42:11.197Z,-0.29
2023-03-02T05:44:56.496Z,-0.02
2023-03-02T05:47:28.276Z,-0.24
2023-03-02T05:53:06.322Z,-0.20
2023-03-02T05:55:36.722Z,-0.27
2023-03-02T05:58:06.996Z,-0.13
2023-03-02T06:00:34.727Z,-0.12
2023-03-02T06:03:02.438Z,-0.09
2023-03-02T06:05:30.136Z,-0.11
2023-03-02T06:07:57.869Z,-0.09
2023-03-02T06:10:25.825Z,-0.14
2023-03-02T06:12:53.560Z,-0.15
2023-03-02T06:15:22.693Z,-0.17
2023-03-02T06:17:50.656Z,-0.17
2023-03-02T06:20:19.210Z,-0.13
2023-03-02T06:22:48.369Z,-0.14
2023-03-02T06:25:18.336Z,-0.15
2023-03-02T06:27:47.117Z,-0.10
2023-03-02T06:30:17.108Z,-0.04
2023-03-02T06:32:46.448Z,0.02
2023-03-02T06:35:14.373Z,0.02
2023-03-02T06:37:44.143Z,-0.10
2023-03-02T06:40:13.960Z,-0.52
2023-03-02T06:42:43.060Z,-0.10
2023-03-02T06:45:11.282Z,-0.03
2023-03-02T06:47:39.295Z,-0.05
2023-03-02T06:50:10.106Z,-0.96
2023-03-02T06:52:37.853Z,-0.12
2023-03-02T06:55:06.624Z,-0.08
2023-03-02T06:57:34.653Z,-0.09
2023-03-02T07:00:07.568Z,-0.08
2023-03-02T07:02:35.302Z,-0.06
2023-03-02T07:05:03.018Z,0.07
2023-03-02T07:07:32.131Z,0.06
2023-03-02T07:09:59.834Z,-0.04
2023-03-02T07:12:27.517Z,0.13
2023-03-02T07:14:55.339Z,0.23
2023-03-02T07:17:23.119Z,0.22
2023-03-02T07:19:50.918Z,0.23
2023-03-02T07:22:18.619Z,0.24
2023-03-02T07:24:47.711Z,0.32
2023-03-02T07:27:15.347Z,0.47
2023-03-02T07:29:43.098Z,0.47
2023-03-02T07:32:12.604Z,0.45
2023-03-02T07:34:40.843Z,0.07
2023-03-02T07:37:08.544Z,0.49
2023-03-02T07:39:36.283Z,0.55
2023-03-02T07:42:08.792Z,0.51
2023-03-02T07:44:36.557Z,0.51
2023-03-02T07:47:04.546Z,0.45
2023-03-02T07:49:32.390Z,-0.58
2023-03-02T07:52:00.153Z,0.47
2023-03-02T07:54:30.420Z,0.50
2023-03-02T07:56:58.331Z,0.51
2023-03-02T07:59:29.442Z,0.59
2023-03-02T08:01:58.341Z,0.31
2023-03-02T08:04:26.652Z,0.54
2023-03-02T08:06:54.544Z,0.52
2023-03-02T08:09:22.305Z,0.52
2023-03-02T08:11:50.150Z,0.60
2023-03-02T08:14:18.057Z,0.65
2023-03-02T08:16:47.207Z,0.64
2023-03-02T08:19:14.868Z,0.76
2023-03-02T08:21:42.563Z,0.80
2023-03-02T08:24:11.458Z,0.80
2023-03-02T08:26:39.465Z,0.85
2023-03-02T08:29:08.006Z,0.79
2023-03-02T08:31:36.151Z,0.84
2023-03-02T08:34:05.778Z,0.95
2023-03-02T08:36:33.815Z,0.96
2023-03-02T08:39:01.802Z,1.00
2023-03-02T08:41:30.642Z,1.12
2023-03-02T08:43:58.786Z,0.71
2023-03-02T08:46:26.532Z,0.95
2023-03-02T08:48:54.300Z,1.20
2023-03-02T08:51:25.016Z,1.32
2023-03-02T08:53:55.064Z,1.15
2023-03-02T08:56:24.676Z,1.48
2023-03-02T08:58:53.741Z,1.62
2023-03-02T09:01:24.031Z,1.67
2023-03-02T09:03:52.406Z,1.83
2023-03-02T09:06:20.223Z,1.56
2023-03-02T09:08:49.370Z,2.02
2023-03-02T09:11:17.216Z,1.93
2023-03-02T09:13:44.991Z,2.04
2023-03-02T09:16:13.307Z,2.02
2023-03-02T09:18:41.324Z,1.94
2023-03-02T09:21:09.345Z,2.05
2023-03-02T09:23:37.324Z,2.13
2023-03-02T09:26:07.073Z,1.32
2023-03-02T09:28:36.046Z,2.27
2023-03-02T09:31:04.639Z,2.55
2023-03-02T09:33:33.346Z,2.21
2023-03-02T09:36:01.535Z,2.85
2023-03-02T09:38:29.385Z,2.82
2023-03-02T09:41:21.907Z,2.79
2023-03-02T09:43:54.658Z,2.72
2023-03-02T09:46:27.676Z,2.69
2023-03-02T09:49:11.600Z,2.38
2023-03-02T09:51:47.556Z,2.72
2023-03-02T09:54:17.692Z,2.88
2023-03-02T09:56:50.538Z,3.06
2023-03-02T09:59:25.608Z,2.63
2023-03-02T10:02:01.246Z,2.94
2023-03-02T10:04:31.612Z,3.00
2023-03-02T10:07:06.846Z,3.00
2023-03-02T10:09:34.602Z,3.04
2023-03-02T10:12:28.980Z,3.30
2023-03-02T10:15:01.132Z,3.32
2023-03-02T10:17:44.083Z,3.54
2023-03-02T10:20:18.296Z,3.87
2023-03-02T10:22:49.402Z,3.80
2023-03-02T10:25:25.164Z,3.69
2023-03-02T10:27:58.840Z,3.86
2023-03-02T10:30:31.818Z,3.76
2023-03-02T10:33:04.003Z,2.90
2023-03-02T10:35:32.957Z,3.96
2023-03-02T10:38:08.197Z,4.10
2023-03-02T10:40:42.653Z,4.00
2023-03-02T10:43:18.742Z,4.29
2023-03-02T10:45:47.347Z,4.39
2023-03-02T10:48:16.116Z,4.21
2023-03-02T10:50:45.498Z,4.19
2023-03-02T10:53:18.680Z,4.49
2023-03-02T10:55:48.370Z,5.70
2023-03-02T10:58:31.913Z,6.75
2023-03-02T11:01:01.278Z,8.13
2023-03-02T11:03:29.627Z,9.37
2023-03-02T11:05:58.020Z,9.66
2023-03-02T11:08:27.751Z,10.24
2023-03-02T11:11:00.647Z,10.39
2023-03-02T11:13:32.561Z,10.30
2023-03-02T11:16:01.807Z,10.21
2023-03-02T11:18:34.045Z,10.10
2023-03-02T11:21:05.635Z,9.49
2023-03-02T11:23:53.046Z,8.20
2023-03-02T11:26:25.813Z,7.84
2023-03-02T11:29:00.815Z,7.15
2023-03-02T11:31:34.889Z,7.81
2023-03-02T11:34:17.239Z,8.46
2023-03-02T11:36:55.075Z,9.62
2023-03-02T11:39:28.727Z,10.57
2023-03-02T11:41:56.442Z,11.01
2023-03-02T11:44:27.421Z,10.89
2023-03-02T11:47:00.601Z,11.75
2023-03-02T11:49:38.756Z,12.24
2023-03-02T11:52:10.500Z,12.73
2023-03-02T11:54:44.781Z,13.27
2023-03-02T11:57:22.101Z,12.67
2023-03-02T11:59:52.325Z,12.54
2023-03-02T12:02:20.910Z,12.70
2023-03-02T12:04:49.728Z,13.18
2023-03-02T12:07:18.940Z,13.03
2023-03-02T12:09:58.508Z,13.05
2023-03-02T12:12:42.805Z,14.16
2023-03-02T12:15:38.681Z,14.60
2023-03-02T12:18:47.700Z,16.02
2023-03-02T12:21:18.283Z,16.99
2023-03-02T12:23:59.405Z,17.00
2023-03-02T12:26:31.953Z,17.13
2023-03-02T12:29:03.577Z,15.90
2023-03-02T12:31:44.109Z,16.16
2023-03-02T12:34:39.890Z,16.36
2023-03-02T12:37:15.442Z,17.17
2023-03-02T12:40:10.711Z,17.69
2023-03-02T12:42:55.958Z,18.81
2023-03-02T12:45:42.692Z,17.58
2023-03-02T12:48:26.188Z,18.06
2023-03-02T12:50:57.894Z,17.90
2023-03-02T12:53:25.637Z,18.71
2023-03-02T12:55:53.403Z,18.98
2023-03-02T12:58:23.025Z,17.74
2023-03-02T13:00:52.915Z,19.12
2023-03-02T13:03:22.435Z,19.00
2023-03-02T13:05:50.333Z,18.93
2023-03-02T13:08:24.125Z,18.88
2023-03-02T13:10:54.224Z,18.12
2023-03-02T13:13:24.972Z,18.17
2023-03-02T13:15:54.752Z,19.30
2023-03-02T13:18:26.369Z,19.10
2023-03-02T13:20:54.901Z,18.21
2023-03-02T13:23:22.698Z,19.18
2023-03-02T13:25:53.021Z,19.20
2023-03-02T13:28:28.459Z,18.03
2023-03-02T13:31:01.307Z,17.06
2023-03-02T13:33:32.760Z,16.05
2023-03-02T13:36:01.233Z,14.36
2023-03-02T13:38:33.816Z,13.39
2023-03-02T13:41:02.201Z,12.19
2023-03-02T13:43:39.256Z,11.50
2023-03-02T13:46:26.858Z,10.45
2023-03-02T13:49:09.189Z,10.58
2023-03-02T13:51:40.179Z,10.47
2023-03-02T13:54:18.075Z,9.84
2023-03-02T13:56:46.278Z,9.46
2023-03-02T13:59:15.484Z,9.31
2023-03-02T14:01:44.093Z,8.90
2023-03-02T14:04:13.994Z,9.40
2023-03-02T14:06:41.814Z,9.37
2023-03-02T14:09:09.571Z,9.31
2023-03-02T14:11:40.675Z,9.27
2023-03-02T14:14:09.657Z,8.92
2023-03-02T14:16:37.447Z,8.78
2023-03-02T14:19:05.313Z,8.68
2023-03-02T14:21:35.881Z,8.10
2023-03-02T14:24:03.860Z,8.69
2023-03-02T14:26:34.747Z,8.58
2023-03-02T14:29:06.401Z,8.55
2023-03-02T14:31:35.613Z,8.46
2023-03-02T14:34:03.561Z,8.53
2023-03-02T14:36:34.820Z,8.31
2023-03-02T14:39:05.033Z,8.42
2023-03-02T14:41:44.003Z,7.98
2023-03-02T14:44:19.160Z,7.90
2023-03-02T14:46:46.924Z,8.15
2023-03-02T14:49:14.882Z,8.28
2023-03-02T14:51:45.966Z,8.42
2023-03-02T14:54:19.357Z,8.44
2023-03-02T14:56:49.347Z,8.40
2023-03-02T14:59:18.776Z,8.17
2023-03-02T15:01:46.664Z,8.30
2023-03-02T15:04:14.370Z,8.24
2023-03-02T15:06:44.900Z,8.24
2023-03-02T15:09:12.930Z,8.10
2023-03-02T15:11:40.614Z,7.98
2023-03-02T15:14:08.261Z,7.44
2023-03-02T15:16:36.147Z,8.03
2023-03-02T15:19:03.937Z,7.82
2023-03-02T15:21:31.875Z,7.80
2023-03-02T15:24:01.118Z,7.67
2023-03-02T15:26:28.787Z,7.81
2023-03-02T15:28:56.547Z,7.83
2023-03-02T15:31:24.282Z,7.88
2023-03-02T15:33:52.204Z,7.82
2023-03-02T15:36:20.788Z,7.75
2023-03-02T15:38:51.125Z,7.68
2023-03-02T15:41:20.843Z,7.24
2023-03-02T15:43:51.152Z,7.51
2023-03-02T15:46:19.046Z,7.62
2023-03-02T15:48:46.856Z,7.52
2023-03-02T15:51:14.533Z,7.40
2023-03-02T15:53:42.163Z,7.63
2023-03-02T15:56:13.569Z,7.61
2023-03-02T15:58:46.665Z,7.48
2023-03-02T16:01:15.788Z,7.24
2023-03-02T16:03:43.754Z,7.39
2023-03-02T16:06:11.862Z,7.31
2023-03-02T16:08:39.593Z,7.10
2023-03-02T16:11:08.706Z,6.78
2023-03-02T16:13:36.535Z,6.90
2023-03-02T16:16:07.152Z,7.18
2023-03-02T16:18:35.057Z,7.17
2023-03-02T16:21:03.511Z,6.97
2023-03-02T16:23:31.154Z,6.97
2023-03-02T16:26:08.063Z,6.97
2023-03-02T16:28:35.744Z,6.95
2023-03-02T16:31:10.254Z,6.12
2023-03-02T16:33:38.732Z,6.92
2023-03-02T16:36:08.718Z,6.91
2023-03-02T16:38:37.299Z,6.67
2023-03-02T16:41:05.669Z,6.82
2023-03-02T16:43:33.399Z,6.74
2023-03-02T16:46:01.267Z,6.63
2023-03-02T16:48:30.414Z,6.64
2023-03-02T16:50:59.125Z,6.61
2023-03-02T16:53:26.831Z,6.38
2023-03-02T16:55:54.532Z,6.41
2023-03-02T16:58:22.208Z,6.29
2023-03-02T17:00:50.051Z,6.23
2023-03-02T17:03:20.302Z,6.28
2023-03-02T17:05:49.415Z,6.28
2023-03-02T17:08:18.007Z,6.22
2023-03-02T17:10:45.771Z,6.17
2023-03-02T17:13:15.481Z,5.22
2023-03-02T17:15:43.774Z,6.15
2023-03-02T17:18:12.228Z,6.09
2023-03-02T17:20:39.962Z,6.07
2023-03-02T17:23:11.936Z,5.32
2023-03-02T17:25:40.379Z,5.98
2023-03-02T17:28:08.139Z,5.44
2023-03-02T17:30:35.830Z,5.78
2023-03-02T17:33:05.286Z,5.74
2023-03-02T17:35:38.127Z,5.35
2023-03-02T17:38:30.132Z,5.13
2023-03-02T17:44:59.678Z,4.55
2023-03-02T17:47:58.459Z,5.48
2023-03-02T17:50:27.155Z,5.21
2023-03-02T17:53:31.767Z,3.60
2023-03-02T17:56:17.190Z,4.33
2023-03-02T18:01:57.667Z,5.14
2023-03-02T18:04:38.299Z,5.04
2023-03-02T18:07:35.149Z,4.00
2023-03-02T18:10:19.047Z,4.02
2023-03-02T18:12:48.426Z,4.73
2023-03-02T18:15:16.108Z,4.84
2023-03-02T18:17:43.846Z,4.76
2023-03-02T18:20:16.491Z,4.13
2023-03-02T18:22:52.713Z,4.69
2023-03-02T18:31:26.480Z,3.72
2023-03-02T18:37:39.641Z,4.59
2023-03-02T18:40:09.268Z,4.57
2023-03-02T18:42:49.629Z,4.02
2023-03-02T18:45:35.580Z,3.57
2023-03-02T18:48:06.529Z,4.37
2023-03-02T18:50:34.285Z,4.33
2023-03-02T18:53:02.057Z,4.34
2023-03-02T18:55:29.827Z,4.24
2023-03-02T18:57:58.922Z,3.86
2023-03-02T19:00:28.214Z,4.15
2023-03-02T19:02:56.048Z,4.00
2023-03-02T19:05:25.225Z,4.14
2023-03-02T19:07:52.921Z,4.03
2023-03-02T19:10:21.604Z,4.02
2023-03-02T19:12:49.454Z,3.84
2023-03-02T19:15:18.715Z,3.96
2023-03-02T19:17:46.937Z,3.81
2023-03-02T19:20:16.849Z,3.88
2023-03-02T19:22:44.810Z,3.81
2023-03-02T19:25:12.976Z,3.77
2023-03-02T19:27:40.645Z,3.83
2023-03-02T19:30:13.066Z,3.76
2023-03-02T19:32:42.229Z,3.55
2023-03-02T19:35:13.490Z,3.73
2023-03-02T19:37:41.517Z,3.70
2023-03-02T19:40:10.706Z,3.68
2023-03-02T19:42:40.092Z,3.72
2023-03-02T19:45:09.695Z,3.41
2023-03-02T19:47:37.400Z,3.58
2023-03-02T19:50:07.689Z,3.55
2023-03-02T19:52:35.465Z,3.52
2023-03-02T19:55:03.132Z,3.53
2023-03-02T19:57:31.194Z,3.46
2023-03-02T19:59:59.352Z,3.38
2023-03-02T20:02:27.191Z,3.38
2023-03-02T20:04:54.989Z,3.37
2023-03-02T20:07:23.955Z,3.31
2023-03-02T20:09:51.585Z,3.29
2023-03-02T20:12:19.810Z,3.26
2023-03-02T20:14:49.278Z,3.18
2023-03-02T20:17:17.209Z,2.97
2023-03-02T20:19:45.040Z,3.15
2023-03-02T20:22:12.694Z,3.13
2023-03-02T20:24:42.132Z,3.09
2023-03-02T20:27:11.598Z,3.09
2023-03-02T20:29:41.373Z,3.02
2023-03-02T20:32:10.767Z,3.07
2023-03-02T20:34:39.903Z,3.10
2023-03-02T20:37:08.452Z,3.01
2023-03-02T20:39:38.400Z,2.95
2023-03-02T20:42:08.431Z,2.88
2023-03-02T20:44:36.784Z,2.41
2023-03-02T20:47:09.742Z,2.91
2023-03-02T20:49:38.571Z,2.67
2023-03-02T20:52:07.850Z,2.77
2023-03-02T20:54:39.332Z,2.80
2023-03-02T20:57:08.906Z,2.74
2023-03-02T20:59:38.546Z,2.73
2023-03-02T21:02:06.692Z,2.66
2023-03-02T21:04:36.020Z,2.64
2023-03-02T21:07:03.915Z,2.63
2023-03-02T21:09:31.726Z,2.61
2023-03-02T21:11:59.441Z,2.58
2023-03-02T21:14:29.640Z,2.09
2023-03-02T21:16:58.545Z,2.26
2023-03-02T21:19:26.419Z,2.54
2023-03-02T21:21:55.245Z,2.52
2023-03-02T21:24:23.187Z,2.48
2023-03-02T21:26:55.328Z,2.43
2023-03-02T21:29:25.076Z,2.18
2023-03-02T21:31:55.065Z,2.39
2023-03-02T21:34:23.106Z,2.21
2023-03-02T21:36:53.609Z,2.19
2023-03-02T21:39:23.616Z,2.25
2023-03-02T21:41:51.829Z,2.28
2023-03-02T21:44:19.517Z,2.25
2023-03-02T21:46:47.311Z,2.20
2023-03-02T21:49:18.899Z,2.22
2023-03-02T21:51:48.981Z,2.08
2023-03-02T21:54:17.782Z,2.23
2023-03-02T21:56:45.610Z,2.20
2023-03-02T21:59:14.986Z,2.09
2023-03-02T22:01:42.780Z,2.15
2023-03-02T22:04:10.503Z,2.10
2023-03-02T22:06:39.676Z,2.10
2023-03-02T22:09:07.353Z,2.06
2023-03-02T22:11:37.042Z,2.05
2023-03-02T22:14:12.393Z,2.00
2023-03-02T22:16:42.117Z,1.96
2023-03-02T22:19:24.416Z,2.00
2023-03-02T22:21:55.033Z,1.86
2023-03-02T22:24:25.931Z,1.74
2023-03-02T22:26:59.369Z,1.88
2023-03-02T22:29:29.245Z,1.81
2023-03-02T22:32:01.687Z,1.77
2023-03-02T22:34:31.301Z,1.68
2023-03-02T22:37:10.688Z,1.74
2023-03-02T22:39:40.517Z,1.59
2023-03-02T22:42:14.751Z,1.19
2023-03-02T22:44:42.929Z,1.66
2023-03-02T22:47:16.412Z,1.60
2023-03-02T22:49:44.448Z,1.58
2023-03-02T22:52:18.406Z,1.50
2023-03-02T22:54:46.592Z,1.56
2023-03-02T22:57:27.023Z,1.48
2023-03-02T23:00:14.780Z,1.44
2023-03-02T23:02:45.011Z,0.94
2023-03-02T23:05:23.946Z,1.45
2023-03-02T23:07:58.490Z,1.38
2023-03-02T23:10:26.219Z,1.35
2023-03-02T23:12:53.992Z,1.38
2023-03-02T23:15:22.135Z,1.23
2023-03-02T23:17:50.076Z,1.35
2023-03-02T23:20:18.079Z,1.33
2023-03-02T23:22:45.802Z,0.34
2023-03-02T23:25:15.714Z,1.29
2023-03-02T23:27:43.442Z,1.31
2023-03-02T23:30:12.059Z,1.34
2023-03-02T23:32:39.793Z,1.18
2023-03-02T23:35:07.840Z,1.32
2023-03-02T23:37:35.574Z,1.30
2023-03-02T23:40:04.233Z,1.35
2023-03-02T23:42:33.486Z,1.33
2023-03-02T23:45:01.295Z,1.32
2023-03-02T23:47:29.016Z,1.23
2023-03-02T23:49:56.718Z,1.27
2023-03-02T23:52:24.429Z,1.25
2023-03-02T23:54:52.146Z,1.27
2023-03-02T23:57:20.120Z,1.21
2023-03-02T23:59:49.236Z,0.71
